createdAt,value
2018-09-24T00:00:23.524Z,8.84
2018-09-24T00:01:33.044Z,8.79
2018-09-24T00:02:42.983Z,8.82
2018-09-24T00:03:52.929Z,8.82
2018-09-24T00:05:02.873Z,8.81
2018-09-24T00:06:12.570Z,8.87
2018-09-24T00:07:22.510Z,8.84
2018-09-24T00:08:32.460Z,8.9
2018-09-24T00:09:42.413Z,8.87
2018-09-24T00:10:52.103Z,8.92
2018-09-24T00:12:02.054Z,8.9
2018-09-24T00:13:12.005Z,8.99
2018-09-24T00:14:21.957Z,8.95
2018-09-24T00:15:31.892Z,8.9
2018-09-24T00:16:41.838Z,8.92
2018-09-24T00:17:51.781Z,8.9
2018-09-24T00:19:01.239Z,8.9
2018-09-24T00:20:11.179Z,8.97
2018-09-24T00:21:21.138Z,8.92
2018-09-24T00:22:30.881Z,8.96
2018-09-24T00:23:40.575Z,8.93
2018-09-24T00:24:50.522Z,8.93
2018-09-24T00:26:00.469Z,8.95
2018-09-24T00:27:10.413Z,8.84
2018-09-24T00:28:20.362Z,8.97
2018-09-24T00:29:30.314Z,9
2018-09-24T00:30:40.263Z,9
2018-09-24T00:31:50.221Z,9.02
2018-09-24T00:32:59.913Z,8.92
2018-09-24T00:34:09.865Z,9
2018-09-24T00:35:19.860Z,8.93
2018-09-24T00:36:29.530Z,8.99
2018-09-24T00:37:39.491Z,8.96
2018-09-24T00:38:49.439Z,8.86
2018-09-24T00:39:59.397Z,8.95
2018-09-24T00:41:09.355Z,8.86
2018-09-24T00:42:19.155Z,8.87
2018-09-24T00:43:29.160Z,8.92
2018-09-24T00:44:39.182Z,8.93
2018-09-24T00:45:48.870Z,8.81
2018-09-24T00:46:58.800Z,8.87
2018-09-24T00:48:08.742Z,8.81
2018-09-24T00:49:18.431Z,8.84
2018-09-24T00:50:28.377Z,8.86
2018-09-24T00:51:38.080Z,8.87
2018-09-24T00:52:48.020Z,8.89
2018-09-24T00:53:57.961Z,8.84
2018-09-24T00:55:07.640Z,8.84
2018-09-24T00:56:17.332Z,8.89
2018-09-24T00:57:27.283Z,8.87
2018-09-24T00:58:37.230Z,8.87
2018-09-24T00:59:46.673Z,8.89
2018-09-24T01:00:56.915Z,8.89
2018-09-24T01:02:06.615Z,8.86
2018-09-24T01:03:16.563Z,8.86
2018-09-24T01:04:26.521Z,8.79
2018-09-24T01:05:36.203Z,8.84
2018-09-24T01:06:46.140Z,8.81
2018-09-24T01:07:55.819Z,8.79
2018-09-24T01:09:05.762Z,8.79
2018-09-24T01:10:15.726Z,8.81
2018-09-24T01:11:25.670Z,8.82
2018-09-24T01:12:35.602Z,8.84
2018-09-24T01:13:45.534Z,8.79
2018-09-24T01:14:55.447Z,8.78
2018-09-24T01:16:05.389Z,8.78
2018-09-24T01:17:15.328Z,8.81
2018-09-24T01:18:25.273Z,8.81
2018-09-24T01:19:35.229Z,8.81
2018-09-24T01:20:45.156Z,8.72
2018-09-24T01:21:55.097Z,8.75
2018-09-24T01:23:05.049Z,8.74
2018-09-24T01:24:14.728Z,8.78
2018-09-24T01:25:24.413Z,8.78
2018-09-24T01:26:34.086Z,8.78
2018-09-24T01:27:44.030Z,8.75
2018-09-24T01:28:53.973Z,8.78
2018-09-24T01:30:03.672Z,8.75
2018-09-24T01:31:13.607Z,8.72
2018-09-24T01:32:23.311Z,8.71
2018-09-24T01:33:33.313Z,8.66
2018-09-24T01:34:43.263Z,8.63
2018-09-24T01:35:52.948Z,8.69
2018-09-24T01:37:03.044Z,8.71
2018-09-24T01:38:12.989Z,8.72
2018-09-24T01:39:22.937Z,8.66
2018-09-24T01:40:32.885Z,8.72
2018-09-24T01:41:42.580Z,8.71
2018-09-24T01:42:52.256Z,8.66
2018-09-24T01:44:02.198Z,8.69
2018-09-24T01:45:11.885Z,8.68
2018-09-24T01:46:21.836Z,8.69
2018-09-24T01:47:31.774Z,8.63
2018-09-24T01:48:41.491Z,8.64
2018-09-24T01:49:51.422Z,8.69
2018-09-24T01:51:01.368Z,8.61
2018-09-24T01:52:11.307Z,8.63
2018-09-24T01:53:20.736Z,8.6
2018-09-24T01:54:30.692Z,8.64
2018-09-24T01:55:40.630Z,8.6
2018-09-24T01:56:50.332Z,8.61
2018-09-24T01:58:00.305Z,8.64
2018-09-24T01:59:10.264Z,8.61
2018-09-24T02:00:20.206Z,8.64
2018-09-24T02:01:30.151Z,8.63
2018-09-24T02:02:40.092Z,8.57
2018-09-24T02:03:50.022Z,8.66
2018-09-24T02:04:59.712Z,8.63
2018-09-24T02:06:09.656Z,8.56
2018-09-24T02:07:19.593Z,8.53
2018-09-24T02:08:29.341Z,8.44
2018-09-24T02:09:39.306Z,8.49
2018-09-24T02:10:49.241Z,8.46
2018-09-24T02:11:59.189Z,8.52
2018-09-24T02:13:09.136Z,8.5
2018-09-24T02:14:19.085Z,8.46
2018-09-24T02:15:28.760Z,8.52
2018-09-24T02:16:38.433Z,8.5
2018-09-24T02:17:48.379Z,8.52
2018-09-24T02:18:58.326Z,8.5
2018-09-24T02:20:07.990Z,8.39
2018-09-24T02:21:17.928Z,8.45
2018-09-24T02:22:27.882Z,8.5
2018-09-24T02:23:37.830Z,8.5
2018-09-24T02:24:47.784Z,8.53
2018-09-24T02:25:57.470Z,8.52
2018-09-24T02:27:07.422Z,8.36
2018-09-24T02:28:17.113Z,8.36
2018-09-24T02:29:26.793Z,8.39
2018-09-24T02:30:36.497Z,8.36
2018-09-24T02:31:46.208Z,8.34
2018-09-24T02:32:56.166Z,8.34
2018-09-24T02:34:05.856Z,8.35
2018-09-24T02:35:15.822Z,8.45
2018-09-24T02:36:25.765Z,8.36
2018-09-24T02:37:34.944Z,8.38
2018-09-24T02:38:44.891Z,8.35
2018-09-24T02:39:54.843Z,8.34
2018-09-24T02:41:04.778Z,8.35
2018-09-24T02:42:14.731Z,8.39
2018-09-24T02:43:24.678Z,8.36
2018-09-24T02:44:34.365Z,8.34
2018-09-24T02:45:44.301Z,8.38
2018-09-24T02:46:53.999Z,8.41
2018-09-24T02:48:03.950Z,8.36
2018-09-24T02:49:13.381Z,8.38
2018-09-24T02:50:23.079Z,8.35
2018-09-24T02:51:32.775Z,8.36
2018-09-24T02:52:42.206Z,8.31
2018-09-24T02:53:51.884Z,8.27
2018-09-24T02:55:01.576Z,8.35
2018-09-24T02:56:11.519Z,8.32
2018-09-24T02:57:21.212Z,8.31
2018-09-24T02:58:30.647Z,8.31
2018-09-24T02:59:40.598Z,8.31
2018-09-24T03:00:50.556Z,8.32
2018-09-24T03:02:00.507Z,8.26
2018-09-24T03:03:10.468Z,8.32
2018-09-24T03:04:20.412Z,8.38
2018-09-24T03:05:30.364Z,8.32
2018-09-24T03:06:40.301Z,8.34
2018-09-24T03:07:50.247Z,8.31
2018-09-24T03:09:00.184Z,8.32
2018-09-24T03:10:10.134Z,8.35
2018-09-24T03:11:20.088Z,8.34
2018-09-24T03:12:29.776Z,8.32
2018-09-24T03:13:39.466Z,8.31
2018-09-24T03:14:49.404Z,8.31
2018-09-24T03:15:59.353Z,8.35
2018-09-24T03:17:09.304Z,8.27
2018-09-24T03:18:19.256Z,8.27
2018-09-24T03:19:28.957Z,8.28
2018-09-24T03:20:38.889Z,8.21
2018-09-24T03:21:48.847Z,8.2
2018-09-24T03:22:58.540Z,8.18
2018-09-24T03:24:08.511Z,8.18
2018-09-24T03:25:18.205Z,8.2
2018-09-24T03:26:28.686Z,8.17
2018-09-24T03:27:38.694Z,8.24
2018-09-24T03:28:48.641Z,8.17
2018-09-24T03:29:58.660Z,8.13
2018-09-24T03:31:08.088Z,8.13
2018-09-24T03:32:18.038Z,8.18
2018-09-24T03:33:27.982Z,8.16
2018-09-24T03:34:37.944Z,8.17
2018-09-24T03:35:47.890Z,8.14
2018-09-24T03:36:57.596Z,8.18
2018-09-24T03:38:07.540Z,8.23
2018-09-24T03:39:17.500Z,8.2
2018-09-24T03:40:27.466Z,8.18
2018-09-24T03:41:37.159Z,8.21
2018-09-24T03:42:46.910Z,8.26
2018-09-24T03:43:56.848Z,8.18
2018-09-24T03:45:06.809Z,8.21
2018-09-24T03:46:16.785Z,8.18
2018-09-24T03:47:26.730Z,8.13
2018-09-24T03:48:36.685Z,8.26
2018-09-24T03:49:46.395Z,8.2
2018-09-24T03:50:56.349Z,8.26
2018-09-24T03:52:06.291Z,8.21
2018-09-24T03:53:16.232Z,8.2
2018-09-24T03:54:25.909Z,8.2
2018-09-24T03:55:35.592Z,8.16
2018-09-24T03:56:45.534Z,8.28
2018-09-24T03:57:55.487Z,8.23
2018-09-24T03:59:05.726Z,8.24
2018-09-24T04:00:15.889Z,8.2
2018-09-24T04:01:25.571Z,8.2
2018-09-24T04:02:35.505Z,8.17
2018-09-24T04:03:45.180Z,8.2
2018-09-24T04:04:54.864Z,8.17
2018-09-24T04:06:04.827Z,8.14
2018-09-24T04:07:14.784Z,8.17
2018-09-24T04:08:24.479Z,8.18
2018-09-24T04:09:34.559Z,8.21
2018-09-24T04:10:44.570Z,8.26
2018-09-24T04:11:54.718Z,8.16
2018-09-24T04:13:04.662Z,8.26
2018-09-24T04:14:14.369Z,8.26
2018-09-24T04:15:24.314Z,8.31
2018-09-24T04:16:34.004Z,8.32
2018-09-24T04:17:43.939Z,8.36
2018-09-24T04:18:53.900Z,8.32
2018-09-24T04:20:03.871Z,8.35
2018-09-24T04:21:13.584Z,8.32
2018-09-24T04:22:23.543Z,8.32
2018-09-24T04:23:33.226Z,8.34
2018-09-24T04:24:43.184Z,8.23
2018-09-24T04:25:53.146Z,8.21
2018-09-24T04:27:03.094Z,8.26
2018-09-24T04:28:13.043Z,8.2
2018-09-24T04:29:22.749Z,8.2
2018-09-24T04:30:32.719Z,8.28
2018-09-24T04:31:42.649Z,8.21
2018-09-24T04:32:52.622Z,8.23
2018-09-24T04:34:02.578Z,8.21
2018-09-24T04:35:12.267Z,8.17
2018-09-24T04:36:22.225Z,8.18
2018-09-24T04:37:32.191Z,8.18
2018-09-24T04:38:42.160Z,8.17
2018-09-24T04:39:52.131Z,8.13
2018-09-24T04:41:02.091Z,8.2
2018-09-24T04:42:12.108Z,8.2
2018-09-24T04:43:22.061Z,8.27
2018-09-24T04:44:32.018Z,8.24
2018-09-24T04:45:41.991Z,8.17
2018-09-24T04:46:51.929Z,8.23
2018-09-24T04:48:01.902Z,8.2
2018-09-24T04:49:12.078Z,8.23
2018-09-24T04:50:22.315Z,8.17
2018-09-24T04:51:32.266Z,8.14
2018-09-24T04:52:42.217Z,8.16
2018-09-24T04:53:52.201Z,8.08
2018-09-24T04:55:02.169Z,8.11
2018-09-24T04:56:12.126Z,8.14
2018-09-24T04:57:22.121Z,8.13
2018-09-24T04:58:31.599Z,8.16
2018-09-24T04:59:41.860Z,8.17
2018-09-24T05:00:51.551Z,8.2
2018-09-24T05:02:01.523Z,8.2
2018-09-24T05:03:11.484Z,8.2
2018-09-24T05:04:21.180Z,8.17
2018-09-24T05:05:31.133Z,8.13
2018-09-24T05:06:41.099Z,8.2
2018-09-24T05:07:51.049Z,8.17
2018-09-24T05:09:00.721Z,8.18
2018-09-24T05:10:10.863Z,8.14
2018-09-24T05:11:21.004Z,8.09
2018-09-24T05:12:30.968Z,8.09
2018-09-24T05:13:40.903Z,8.18
2018-09-24T05:14:50.867Z,8.23
2018-09-24T05:16:00.681Z,8.23
2018-09-24T05:17:10.963Z,8.16
2018-09-24T05:18:20.924Z,8.18
2018-09-24T05:19:30.858Z,8.24
2018-09-24T05:20:40.544Z,8.24
2018-09-24T05:21:50.493Z,8.23
2018-09-24T05:23:00.444Z,8.21
2018-09-24T05:24:10.413Z,8.18
2018-09-24T05:25:20.359Z,8.24
2018-09-24T05:26:30.319Z,8.24
2018-09-24T05:27:40.015Z,8.2
2018-09-24T05:28:49.972Z,8.24
2018-09-24T05:29:59.920Z,8.18
2018-09-24T05:31:09.618Z,8.27
2018-09-24T05:32:19.663Z,8.32
2018-09-24T05:33:29.781Z,8.32
2018-09-24T05:34:39.722Z,8.23
2018-09-24T05:35:49.155Z,8.38
2018-09-24T05:36:59.111Z,8.27
2018-09-24T05:38:09.109Z,8.34
2018-09-24T05:39:19.091Z,8.32
2018-09-24T05:40:29.053Z,8.32
2018-09-24T05:41:39.019Z,8.36
2018-09-24T05:42:49.040Z,8.34
2018-09-24T05:43:58.751Z,8.36
2018-09-24T05:45:08.196Z,8.41
2018-09-24T05:46:18.170Z,8.35
2018-09-24T05:47:28.146Z,8.35
2018-09-24T05:48:38.105Z,8.45
2018-09-24T05:49:48.115Z,8.45
2018-09-24T05:50:58.076Z,8.53
2018-09-24T05:52:07.767Z,8.45
2018-09-24T05:53:17.723Z,8.53
2018-09-24T05:54:27.475Z,8.5
2018-09-24T05:55:37.191Z,8.56
2018-09-24T05:56:47.147Z,8.46
2018-09-24T05:57:57.101Z,8.46
2018-09-24T05:59:07.077Z,8.53
2018-09-24T06:00:16.774Z,8.44
2018-09-24T06:01:26.481Z,8.59
2018-09-24T06:02:36.438Z,8.63
2018-09-24T06:03:45.878Z,8.56
2018-09-24T06:04:55.857Z,8.59
2018-09-24T06:06:05.823Z,8.54
2018-09-24T06:07:15.530Z,8.6
2018-09-24T06:08:25.477Z,8.56
2018-09-24T06:09:35.441Z,8.63
2018-09-24T06:10:45.389Z,8.63
2018-09-24T06:11:55.093Z,8.59
2018-09-24T06:13:05.041Z,8.63
2018-09-24T06:14:14.993Z,8.6
2018-09-24T06:15:24.933Z,8.68
2018-09-24T06:16:34.368Z,8.6
2018-09-24T06:17:44.324Z,8.71
2018-09-24T06:18:53.817Z,8.63
2018-09-24T06:20:03.966Z,8.68
2018-09-24T06:21:13.957Z,8.61
2018-09-24T06:22:23.955Z,8.68
2018-09-24T06:23:33.913Z,8.72
2018-09-24T06:24:43.890Z,8.72
2018-09-24T06:25:53.857Z,8.74
2018-09-24T06:27:03.822Z,8.77
2018-09-24T06:28:13.774Z,8.79
2018-09-24T06:29:23.885Z,8.84
2018-09-24T06:30:33.852Z,8.92
2018-09-24T06:31:43.807Z,8.82
2018-09-24T06:32:53.758Z,8.95
2018-09-24T06:34:03.729Z,8.96
2018-09-24T06:35:13.745Z,8.86
2018-09-24T06:36:23.704Z,8.9
2018-09-24T06:37:33.409Z,8.97
2018-09-24T06:38:43.356Z,8.96
2018-09-24T06:39:53.316Z,8.9
2018-09-24T06:41:03.444Z,9.02
2018-09-24T06:42:13.581Z,8.93
2018-09-24T06:43:23.285Z,8.97
2018-09-24T06:44:33.268Z,8.99
2018-09-24T06:45:43.271Z,9.05
2018-09-24T06:46:52.972Z,9.03
2018-09-24T06:48:02.665Z,9.12
2018-09-24T06:49:12.600Z,9.05
2018-09-24T06:50:22.566Z,9.15
2018-09-24T06:51:32.316Z,9.08
2018-09-24T06:52:42.279Z,9.15
2018-09-24T06:53:52.265Z,9.21
2018-09-24T06:55:01.977Z,9.18
2018-09-24T06:56:11.404Z,9.24
2018-09-24T06:57:21.124Z,9.22
2018-09-24T06:58:31.146Z,9.24
2018-09-24T06:59:41.367Z,9.27
2018-09-24T07:00:51.507Z,9.26
2018-09-24T07:02:01.489Z,9.29
2018-09-24T07:03:11.441Z,9.37
2018-09-24T07:04:21.147Z,9.33
2018-09-24T07:05:31.018Z,9.4
2018-09-24T07:06:41.269Z,9.49
2018-09-24T07:07:51.242Z,9.4
2018-09-24T07:09:01.175Z,9.45
2018-09-24T07:10:11.136Z,9.44
2018-09-24T07:11:21.329Z,9.55
2018-09-24T07:12:30.832Z,9.56
2018-09-24T07:13:40.781Z,9.54
2018-09-24T07:14:50.499Z,9.58
2018-09-24T07:16:00.244Z,9.56
2018-09-24T07:17:09.982Z,9.58
2018-09-24T07:18:19.953Z,9.64
2018-09-24T07:19:29.660Z,9.63
2018-09-24T07:20:39.607Z,9.69
2018-09-24T07:21:49.321Z,9.72
2018-09-24T07:22:59.316Z,9.73
2018-09-24T07:24:08.769Z,9.82
2018-09-24T07:25:18.726Z,9.77
2018-09-24T07:26:28.428Z,9.85
2018-09-24T07:27:38.525Z,9.84
2018-09-24T07:28:48.714Z,9.88
2018-09-24T07:29:58.672Z,9.87
2018-09-24T07:31:08.681Z,9.88
2018-09-24T07:32:18.661Z,9.99
2018-09-24T07:33:28.822Z,9.99
2018-09-24T07:34:38.765Z,10.02
2018-09-24T07:35:48.469Z,10.06
2018-09-24T07:36:58.447Z,10.12
2018-09-24T07:38:08.409Z,10.18
2018-09-24T07:39:18.400Z,10.18
2018-09-24T07:40:28.379Z,10.27
2018-09-24T07:41:38.336Z,10.18
2018-09-24T07:42:48.060Z,10.09
2018-09-24T07:43:58.075Z,10.24
2018-09-24T07:45:08.066Z,10.21
2018-09-24T07:46:18.048Z,10.27
2018-09-24T07:47:28.086Z,10.2
2018-09-24T07:48:38.084Z,10.18
2018-09-24T07:49:48.042Z,10.2
2018-09-24T07:50:57.514Z,10.24
2018-09-24T07:52:07.200Z,10.24
2018-09-24T07:53:16.631Z,10.2
2018-09-24T07:54:26.585Z,10.25
2018-09-24T07:55:36.941Z,10.24
2018-09-24T07:56:47.116Z,10.3
2018-09-24T07:57:57.120Z,10.27
2018-09-24T07:59:06.598Z,10.33
2018-09-24T08:00:16.550Z,10.34
2018-09-24T08:01:26.521Z,10.39
2018-09-24T08:02:36.224Z,10.42
2018-09-24T08:03:46.200Z,10.45
2018-09-24T08:04:56.166Z,10.58
2018-09-24T08:06:05.862Z,10.58
2018-09-24T08:07:15.936Z,10.57
2018-09-24T08:08:25.986Z,10.49
2018-09-24T08:09:35.953Z,10.55
2018-09-24T08:10:45.904Z,10.62
2018-09-24T08:11:55.870Z,10.69
2018-09-24T08:13:06.143Z,10.83
2018-09-24T08:14:16.219Z,11.04
2018-09-24T08:15:26.183Z,10.95
2018-09-24T08:16:36.126Z,10.97
2018-09-24T08:17:46.073Z,11.07
2018-09-24T08:18:56.031Z,11.07
2018-09-24T08:20:05.777Z,11.04
2018-09-24T08:21:16.062Z,10.98
2018-09-24T08:22:26.033Z,11.07
2018-09-24T08:23:35.983Z,11.13
2018-09-24T08:24:45.945Z,11.2
2018-09-24T08:25:55.913Z,11.19
2018-09-24T08:27:05.889Z,11.16
2018-09-24T08:28:15.848Z,11.13
2018-09-24T08:29:25.297Z,11.23
2018-09-24T08:30:35.257Z,11.3
2018-09-24T08:31:45.215Z,11.33
2018-09-24T08:32:54.911Z,11.43
2018-09-24T08:34:04.631Z,11.31
2018-09-24T08:35:14.595Z,11.27
2018-09-24T08:36:25.059Z,11.3
2018-09-24T08:37:35.088Z,11.49
2018-09-24T08:38:45.055Z,11.68
2018-09-24T08:39:55.020Z,11.83
2018-09-24T08:41:05.037Z,11.93
2018-09-24T08:42:14.742Z,11.91
2018-09-24T08:43:24.713Z,11.85
2018-09-24T08:44:34.421Z,11.74
2018-09-24T08:45:44.408Z,11.8
2018-09-24T08:46:54.365Z,11.77
2018-09-24T08:48:04.065Z,11.96
2018-09-24T08:49:14.027Z,11.96
2018-09-24T08:50:23.723Z,11.96
2018-09-24T08:51:33.168Z,11.86
2018-09-24T08:52:43.125Z,11.88
2018-09-24T08:53:53.114Z,12.02
2018-09-24T08:55:03.103Z,12.1
2018-09-24T08:56:12.806Z,12.2
2018-09-24T08:57:23.068Z,12.21
2018-09-24T08:58:33.165Z,12.29
2018-09-24T08:59:43.131Z,12.3
2018-09-24T09:00:53.121Z,12.51
2018-09-24T09:02:03.077Z,12.58
2018-09-24T09:03:12.792Z,12.7
2018-09-24T09:04:22.752Z,12.63
2018-09-24T09:05:32.719Z,12.47
2018-09-24T09:06:42.939Z,12.43
2018-09-24T09:07:52.912Z,12.29
2018-09-24T09:09:02.372Z,12.11
2018-09-24T09:10:12.406Z,12.05
2018-09-24T09:11:22.377Z,11.96
2018-09-24T09:12:32.355Z,12.03
2018-09-24T09:13:42.097Z,11.95
2018-09-24T09:14:51.799Z,12
2018-09-24T09:16:01.732Z,11.96
2018-09-24T09:17:11.681Z,12
2018-09-24T09:18:21.643Z,11.97
2018-09-24T09:19:31.601Z,12.11
2018-09-24T09:20:41.546Z,12.15
2018-09-24T09:21:51.521Z,12.3
2018-09-24T09:23:01.700Z,12.32
2018-09-24T09:24:11.917Z,12.39
2018-09-24T09:25:21.885Z,12.32
2018-09-24T09:26:31.888Z,12.3
2018-09-24T09:27:41.843Z,12.4
2018-09-24T09:28:51.804Z,12.39
2018-09-24T09:30:01.766Z,12.4
2018-09-24T09:31:11.741Z,12.5
2018-09-24T09:32:21.750Z,12.73
2018-09-24T09:33:31.694Z,12.75
2018-09-24T09:34:41.408Z,12.63
2018-09-24T09:35:50.851Z,12.63
2018-09-24T09:37:00.655Z,12.76
2018-09-24T09:38:10.632Z,12.75
2018-09-24T09:39:20.368Z,12.63
2018-09-24T09:40:29.822Z,12.51
2018-09-24T09:41:39.570Z,12.47
2018-09-24T09:42:49.522Z,12.43
2018-09-24T09:43:59.503Z,12.39
2018-09-24T09:45:09.476Z,12.4
2018-09-24T09:46:19.444Z,12.51
2018-09-24T09:47:29.418Z,12.65
2018-09-24T09:48:39.137Z,12.54
2018-09-24T09:49:48.847Z,12.53
2018-09-24T09:50:58.845Z,12.5
2018-09-24T09:52:08.549Z,12.5
2018-09-24T09:53:18.266Z,12.53
2018-09-24T09:54:27.739Z,12.57
2018-09-24T09:55:37.710Z,12.51
2018-09-24T09:56:47.670Z,12.37
2018-09-24T09:57:57.622Z,12.37
2018-09-24T09:59:07.745Z,12.44
2018-09-24T10:00:17.866Z,12.35
2018-09-24T10:01:27.581Z,12.48
2018-09-24T10:02:37.547Z,12.53
2018-09-24T10:03:47.533Z,12.53
2018-09-24T10:04:57.651Z,12.53
2018-09-24T10:06:07.646Z,12.73
2018-09-24T10:07:17.615Z,12.62
2018-09-24T10:08:27.580Z,12.48
2018-09-24T10:09:37.507Z,12.51
2018-09-24T10:10:47.485Z,12.5
2018-09-24T10:11:57.472Z,12.54
2018-09-24T10:13:07.452Z,12.5
2018-09-24T10:14:17.425Z,12.54
2018-09-24T10:15:27.144Z,12.68
2018-09-24T10:16:36.854Z,12.84
2018-09-24T10:17:46.557Z,12.9
2018-09-24T10:18:56.257Z,13.11
2018-09-24T10:20:05.962Z,12.99
2018-09-24T10:21:15.925Z,13.06
2018-09-24T10:22:25.630Z,13.17
2018-09-24T10:23:35.141Z,13.42
2018-09-24T10:24:44.855Z,13.37
2018-09-24T10:25:54.577Z,13.31
2018-09-24T10:27:04.540Z,13.23
2018-09-24T10:28:14.493Z,13.05
2018-09-24T10:29:24.458Z,12.93
2018-09-24T10:30:34.144Z,12.87
2018-09-24T10:31:43.835Z,12.99
2018-09-24T10:32:53.799Z,12.93
2018-09-24T10:34:03.765Z,13.05
2018-09-24T10:35:13.473Z,13.08
2018-09-24T10:36:23.199Z,13.08
2018-09-24T10:37:33.149Z,12.98
2018-09-24T10:38:43.168Z,12.91
2018-09-24T10:39:52.869Z,12.91
2018-09-24T10:41:02.307Z,13.05
2018-09-24T10:42:11.757Z,13.11
2018-09-24T10:43:21.756Z,13.03
2018-09-24T10:44:31.730Z,13.05
2018-09-24T10:45:41.695Z,13.03
2018-09-24T10:46:51.604Z,12.91
2018-09-24T10:48:01.322Z,13.02
2018-09-24T10:49:11.287Z,13.03
2018-09-24T10:50:21.511Z,13.08
2018-09-24T10:51:31.519Z,13.23
2018-09-24T10:52:41.487Z,13.54
2018-09-24T10:53:51.492Z,13.68
2018-09-24T10:55:01.718Z,13.87
2018-09-24T10:56:11.818Z,14
2018-09-24T10:57:21.532Z,14.15
2018-09-24T10:58:31.244Z,14.01
2018-09-24T10:59:41.518Z,13.82
2018-09-24T11:00:51.573Z,13.87
2018-09-24T11:02:01.662Z,14.01
2018-09-24T11:03:11.382Z,13.93
2018-09-24T11:04:21.089Z,13.93
2018-09-24T11:05:31.064Z,13.98
2018-09-24T11:06:41.014Z,14.2
2018-09-24T11:07:50.962Z,14.43
2018-09-24T11:09:00.924Z,14.67
2018-09-24T11:10:10.949Z,14.45
2018-09-24T11:11:20.837Z,14.22
2018-09-24T11:12:30.799Z,14.07
2018-09-24T11:13:40.773Z,14.01
2018-09-24T11:14:50.490Z,13.95
2018-09-24T11:16:00.850Z,14
2018-09-24T11:17:12.084Z,14.2
2018-09-24T11:18:23.567Z,14.49
2018-09-24T11:19:33.533Z,14.86
2018-09-24T11:20:43.624Z,14.89
2018-09-24T11:21:53.313Z,14.53
2018-09-24T11:23:03.051Z,14.38
2018-09-24T11:24:12.818Z,14.34
2018-09-24T11:25:22.845Z,14.28
2018-09-24T11:27:42.316Z,13.87
2018-09-24T11:28:52.282Z,13.76
2018-09-24T11:30:02.278Z,13.64
2018-09-24T11:31:12.241Z,13.83
2018-09-24T11:32:22.237Z,13.98
2018-09-24T11:33:32.240Z,14.11
2018-09-24T11:34:42.229Z,14.16
2018-09-24T11:35:51.941Z,14.28
2018-09-24T11:37:01.882Z,14.26
2018-09-24T11:38:11.318Z,14
2018-09-24T11:39:21.297Z,14.05
2018-09-24T11:40:31.058Z,13.95
2018-09-24T11:41:41.036Z,13.94
2018-09-24T11:42:50.997Z,13.93
2018-09-24T11:44:00.962Z,13.98
2018-09-24T11:45:10.661Z,14.11
2018-09-24T11:46:20.659Z,13.91
2018-09-24T11:47:30.713Z,13.89
2018-09-24T11:48:40.681Z,13.83
2018-09-24T11:49:50.392Z,13.85
2018-09-24T11:51:00.324Z,13.71
2018-09-24T11:52:10.305Z,13.58
2018-09-24T11:53:20.263Z,13.09
2018-09-24T11:54:30.456Z,12.14
2018-09-24T11:55:40.457Z,11.52
2018-09-24T11:56:50.415Z,10.98
2018-09-24T11:58:00.365Z,10.31
2018-09-24T11:59:10.328Z,9.99
2018-09-24T12:00:20.300Z,9.73
2018-09-24T12:01:29.757Z,9.69
2018-09-24T12:02:39.453Z,9.56
2018-09-24T12:03:49.406Z,9.49
2018-09-24T12:04:59.105Z,9.39
2018-09-24T12:06:09.080Z,9.44
2018-09-24T12:07:18.806Z,9.42
2018-09-24T12:08:28.522Z,9.39
2018-09-24T12:09:38.235Z,9.33
2018-09-24T12:10:48.181Z,9.33
2018-09-24T12:11:58.126Z,9.27
2018-09-24T12:13:07.844Z,9.31
2018-09-24T12:14:17.804Z,9.24
2018-09-24T12:15:27.744Z,9.22
2018-09-24T12:16:37.439Z,9.11
2018-09-24T12:17:46.883Z,9.09
2018-09-24T12:18:56.568Z,9.15
2018-09-24T12:20:06.526Z,9.03
2018-09-24T12:21:16.468Z,9.05
2018-09-24T12:22:26.599Z,9.03
2018-09-24T12:23:36.562Z,9.12
2018-09-24T12:24:46.258Z,9.19
2018-09-24T12:25:56.216Z,9.21
2018-09-24T12:27:06.190Z,9.24
2018-09-24T12:28:15.906Z,9.22
2018-09-24T12:29:25.857Z,9.33
2018-09-24T12:30:35.585Z,9.21
2018-09-24T12:31:45.538Z,9.27
2018-09-24T12:32:55.501Z,9.24
2018-09-24T12:34:05.215Z,9.24
2018-09-24T12:35:14.915Z,9.22
2018-09-24T12:36:24.878Z,9.21
2018-09-24T12:37:34.910Z,9.13
2018-09-24T12:38:44.613Z,8.93
2018-09-24T12:39:54.573Z,8.99
2018-09-24T12:41:04.260Z,8.87
2018-09-24T12:42:14.224Z,8.84
2018-09-24T12:43:24.177Z,8.78
2018-09-24T12:44:34.131Z,8.69
2018-09-24T12:45:44.085Z,8.63
2018-09-24T12:46:54.063Z,8.45
2018-09-24T12:48:04.022Z,8.5
2018-09-24T12:49:14.063Z,8.38
2018-09-24T12:50:23.803Z,8.39
2018-09-24T12:51:33.767Z,8.34
2018-09-24T12:52:43.959Z,8.35
2018-09-24T12:53:54.128Z,8.34
2018-09-24T12:55:03.831Z,8.34
2018-09-24T12:56:13.789Z,8.32
2018-09-24T12:57:23.752Z,8.38
2018-09-24T12:58:33.459Z,8.45
2018-09-24T12:59:43.408Z,8.6
2018-09-24T13:00:53.366Z,8.61
2018-09-24T13:02:03.312Z,8.74
2018-09-24T13:03:13.029Z,8.9
2018-09-24T13:04:22.735Z,9.03
2018-09-24T13:05:32.724Z,9.18
2018-09-24T13:06:42.669Z,9.34
2018-09-24T13:07:52.633Z,9.59
2018-09-24T13:09:02.587Z,9.67
2018-09-24T13:10:12.549Z,9.99
2018-09-24T13:11:22.535Z,10.33
2018-09-24T13:12:32.496Z,10.62
2018-09-24T13:13:41.681Z,10.95
2018-09-24T13:14:51.626Z,11.2
2018-09-24T13:16:01.571Z,11.44
2018-09-24T13:17:11.277Z,11.71
2018-09-24T13:18:20.978Z,11.96
2018-09-24T13:19:30.674Z,12.08
2018-09-24T13:20:40.740Z,12.25
2018-09-24T13:21:50.717Z,12.35
2018-09-24T13:23:00.164Z,12.57
2018-09-24T13:24:10.131Z,12.78
2018-09-24T13:25:20.101Z,12.86
2018-09-24T13:26:30.144Z,13.01
2018-09-24T13:27:40.116Z,13.36
2018-09-24T13:28:50.126Z,13.45
2018-09-24T13:29:59.832Z,13.58
2018-09-24T13:31:09.536Z,13.73
2018-09-24T13:32:19.251Z,13.94
2018-09-24T13:33:29.209Z,13.98
2018-09-24T13:34:39.188Z,14.03
2018-09-24T13:35:48.903Z,14
2018-09-24T13:36:58.603Z,14.04
2018-09-24T13:38:08.559Z,14.18
2018-09-24T13:39:18.021Z,14.22
2018-09-24T13:40:28.033Z,14.13
2018-09-24T13:41:37.987Z,13.98
2018-09-24T13:42:47.981Z,13.57
2018-09-24T13:43:57.963Z,13.28
2018-09-24T13:45:07.905Z,13.06
2018-09-24T13:46:17.659Z,12.73
2018-09-24T13:47:27.627Z,12.39
2018-09-24T13:48:37.333Z,12.2
2018-09-24T13:49:47.293Z,11.77
2018-09-24T13:50:56.723Z,11.38
2018-09-24T13:52:06.678Z,11.1
2018-09-24T13:53:16.697Z,10.97
2018-09-24T13:54:26.895Z,10.94
2018-09-24T13:55:36.589Z,10.87
2018-09-24T13:56:46.407Z,10.86
2018-09-24T13:57:56.362Z,10.8
2018-09-24T13:59:06.057Z,10.68
2018-09-24T14:00:16.018Z,10.69
2018-09-24T14:01:25.478Z,10.59
2018-09-24T14:02:35.453Z,10.59
2018-09-24T14:03:45.164Z,10.53
2018-09-24T14:04:55.108Z,10.57
2018-09-24T14:06:05.053Z,10.53
2018-09-24T14:07:15.000Z,10.55
2018-09-24T14:08:24.959Z,10.48
2018-09-24T14:09:34.920Z,10.49
2018-09-24T14:10:44.908Z,10.55
2018-09-24T14:11:54.618Z,10.55
2018-09-24T14:13:04.552Z,10.53
2018-09-24T14:14:14.037Z,10.72
2018-09-24T14:15:23.984Z,10.75
2018-09-24T14:16:33.694Z,11.08
2018-09-24T14:17:43.389Z,11.25
2018-09-24T14:18:53.365Z,11.53
2018-09-24T14:20:03.334Z,11.78
2018-09-24T14:21:13.317Z,12.07
2018-09-24T14:22:23.291Z,12.44
2018-09-24T14:23:33.258Z,12.78
2018-09-24T14:24:42.962Z,13.05
2018-09-24T14:25:52.925Z,13.31
2018-09-24T14:27:02.388Z,13.43
2018-09-24T14:28:12.366Z,13.65
2018-09-24T14:29:22.326Z,13.78
2018-09-24T14:30:32.290Z,13.83
2018-09-24T14:31:42.268Z,13.85
2018-09-24T14:32:51.711Z,13.89
2018-09-24T14:34:01.529Z,13.75
2018-09-24T14:35:11.327Z,13.64
2018-09-24T14:36:21.284Z,13.42
2018-09-24T14:37:31.241Z,13.31
2018-09-24T14:38:41.197Z,13.09
2018-09-24T14:39:50.893Z,13.06
2018-09-24T14:41:00.083Z,12.94
2018-09-24T14:42:10.088Z,12.76
2018-09-24T14:43:20.056Z,12.73
2018-09-24T14:44:30.050Z,12.54
2018-09-24T14:45:40.015Z,12.48
2018-09-24T14:46:49.715Z,12.48
2018-09-24T14:47:59.679Z,12.37
2018-09-24T14:49:09.365Z,12.36
2018-09-24T14:50:19.068Z,12.51
2018-09-24T14:51:28.755Z,12.63
2018-09-24T14:52:38.709Z,12.76
2018-09-24T14:53:48.408Z,12.9
2018-09-24T14:54:58.361Z,12.9
2018-09-24T14:56:08.056Z,12.93
2018-09-24T14:57:18.017Z,12.94
2018-09-24T14:58:27.722Z,12.86
2018-09-24T14:59:37.429Z,12.9
2018-09-24T15:00:47.120Z,12.84
2018-09-24T15:01:56.800Z,12.83
2018-09-24T15:03:06.771Z,12.87
2018-09-24T15:04:16.820Z,12.9
2018-09-24T15:05:26.513Z,12.9
2018-09-24T15:06:35.697Z,13.02
2018-09-24T15:07:45.636Z,13.24
2018-09-24T15:08:55.326Z,13.24
2018-09-24T15:10:05.301Z,13.28
2018-09-24T15:11:15.257Z,13.4
2018-09-24T15:12:25.014Z,13.31
2018-09-24T15:13:35.065Z,13.33
2018-09-24T15:14:44.780Z,13.12
2018-09-24T15:15:54.485Z,12.84
2018-09-24T15:17:04.437Z,12.73
2018-09-24T15:18:14.134Z,12.48
2018-09-24T15:19:24.092Z,12.29
2018-09-24T15:20:34.057Z,11.77
2018-09-24T15:21:44.014Z,11.15